createdAt,value
2018-08-22T00:00:33.565Z,0.00
2018-08-22T00:01:33.625Z,0.00
2018-08-22T00:02:33.625Z,0.00
2018-08-22T00:03:33.658Z,0.00
2018-08-22T00:04:33.691Z,0.00
2018-08-22T00:05:33.722Z,0.00
2018-08-22T00:06:33.748Z,0.00
2018-08-22T00:07:33.780Z,0.00
2018-08-22T00:08:33.815Z,0.00
2018-08-22T00:09:33.840Z,0.00
2018-08-22T00:10:33.870Z,0.00
2018-08-22T00:11:33.904Z,0.00
2018-08-22T00:12:33.939Z,0.00
2018-08-22T00:13:33.964Z,0.00
2018-08-22T00:14:33.994Z,0.00
2018-08-22T00:15:34.024Z,0.00
2018-08-22T00:16:34.055Z,0.00
2018-08-22T00:17:34.088Z,0.00
2018-08-22T00:18:34.117Z,0.00
2018-08-22T00:19:34.147Z,0.00
2018-08-22T00:20:34.178Z,0.00
2018-08-22T00:21:34.211Z,0.00
2018-08-22T00:22:34.299Z,0.00
2018-08-22T00:23:34.267Z,0.00
2018-08-22T00:24:34.301Z,0.00
2018-08-22T00:25:34.330Z,0.00
2018-08-22T00:26:34.361Z,0.00
2018-08-22T00:27:34.391Z,0.00
2018-08-22T00:28:34.421Z,0.00
2018-08-22T00:29:34.454Z,0.00
2018-08-22T00:30:34.482Z,0.00
2018-08-22T00:31:34.512Z,0.00
2018-08-22T00:32:34.542Z,0.00
2018-08-22T00:33:34.575Z,0.00
2018-08-22T00:34:34.607Z,0.00
2018-08-22T00:35:34.640Z,0.00
2018-08-22T00:36:34.664Z,0.00
2018-08-22T00:37:34.699Z,0.00
2018-08-22T00:38:34.730Z,0.00
2018-08-22T00:39:34.761Z,0.00
2018-08-22T00:40:34.786Z,0.00
2018-08-22T00:41:34.818Z,0.00
2018-08-22T00:42:34.852Z,0.00
2018-08-22T00:43:34.879Z,0.00
2018-08-22T00:44:34.907Z,0.00
2018-08-22T00:45:34.938Z,0.00
2018-08-22T00:46:34.970Z,0.00
2018-08-22T00:47:35.002Z,0.00
2018-08-22T00:48:35.033Z,0.00
2018-08-22T00:49:35.064Z,0.00
2018-08-22T00:50:35.097Z,0.00
2018-08-22T00:51:35.121Z,0.00
2018-08-22T00:52:35.151Z,0.00
2018-08-22T00:53:35.184Z,0.00
2018-08-22T00:54:35.216Z,0.00
2018-08-22T00:55:35.247Z,0.00
2018-08-22T00:56:35.275Z,0.00
2018-08-22T00:57:35.309Z,0.00
2018-08-22T00:58:35.339Z,0.00
2018-08-22T00:59:35.370Z,0.00
2018-08-22T01:00:35.397Z,0.00
2018-08-22T01:01:35.431Z,0.00
2018-08-22T01:02:35.460Z,0.00
2018-08-22T01:03:35.490Z,0.00
2018-08-22T01:04:35.519Z,0.00
2018-08-22T01:05:35.551Z,0.00
2018-08-22T01:06:35.582Z,0.00
2018-08-22T01:07:35.614Z,0.00
2018-08-22T01:08:35.644Z,0.00
2018-08-22T01:09:35.672Z,0.00
2018-08-22T01:10:35.700Z,0.00
2018-08-22T01:11:35.731Z,0.00
2018-08-22T01:12:35.762Z,0.00
2018-08-22T01:13:35.793Z,0.00
2018-08-22T01:14:35.825Z,0.00
2018-08-22T01:15:35.858Z,0.00
2018-08-22T01:16:35.887Z,0.00
2018-08-22T01:17:35.915Z,0.00
2018-08-22T01:18:35.947Z,0.00
2018-08-22T01:19:35.981Z,0.00
2018-08-22T01:20:36.005Z,0.00
2018-08-22T01:21:36.039Z,0.00
2018-08-22T01:22:36.067Z,0.00
2018-08-22T01:23:36.096Z,0.00
2018-08-22T01:24:36.130Z,0.00
2018-08-22T01:25:36.160Z,0.00
2018-08-22T01:26:36.190Z,0.00
2018-08-22T01:27:36.222Z,0.00
2018-08-22T01:28:36.250Z,0.00
2018-08-22T01:29:36.279Z,0.00
2018-08-22T01:30:36.312Z,0.00
2018-08-22T01:31:36.339Z,0.00
2018-08-22T01:32:36.372Z,0.00
2018-08-22T01:33:36.403Z,0.00
2018-08-22T01:34:36.432Z,0.00
2018-08-22T01:35:36.465Z,0.00
2018-08-22T01:36:36.495Z,0.00
2018-08-22T01:37:36.523Z,0.00
2018-08-22T01:38:36.556Z,0.00
2018-08-22T01:39:36.586Z,0.00
2018-08-22T01:40:36.613Z,0.00
2018-08-22T01:41:36.648Z,0.00
2018-08-22T01:42:36.677Z,0.00
2018-08-22T01:43:36.706Z,0.00
2018-08-22T01:44:36.737Z,0.00
2018-08-22T01:45:36.771Z,0.00
2018-08-22T01:46:36.799Z,0.00
2018-08-22T01:47:36.833Z,0.00
2018-08-22T01:48:36.860Z,0.00
2018-08-22T01:49:36.890Z,0.00
2018-08-22T01:50:36.920Z,0.00
2018-08-22T01:51:36.949Z,0.00
2018-08-22T01:52:36.978Z,0.00
2018-08-22T01:53:37.009Z,0.00
2018-08-22T01:54:37.040Z,0.00
2018-08-22T01:55:37.072Z,0.00
2018-08-22T01:56:37.102Z,0.00
2018-08-22T01:57:37.133Z,0.00
2018-08-22T01:58:37.167Z,0.00
2018-08-22T01:59:37.198Z,0.00
2018-08-22T02:00:37.222Z,0.00
2018-08-22T02:01:37.254Z,0.00
2018-08-22T02:02:37.286Z,0.00
2018-08-22T02:03:37.314Z,0.00
2018-08-22T02:04:37.346Z,0.00
2018-08-22T02:05:37.374Z,0.00
2018-08-22T02:06:37.405Z,0.00
2018-08-22T02:07:37.439Z,0.00
2018-08-22T02:08:37.465Z,0.00
2018-08-22T02:09:37.499Z,0.00
2018-08-22T02:10:37.529Z,0.00
2018-08-22T02:11:37.561Z,0.00
2018-08-22T02:12:37.590Z,0.00
2018-08-22T02:13:37.620Z,0.00
2018-08-22T02:14:37.647Z,0.00
2018-08-22T02:15:37.679Z,0.00
2018-08-22T02:16:37.709Z,0.00
2018-08-22T02:17:37.741Z,0.00
2018-08-22T02:18:37.769Z,0.00
2018-08-22T02:19:37.800Z,0.00
2018-08-22T02:20:37.832Z,0.00
2018-08-22T02:21:37.860Z,0.00
2018-08-22T02:22:37.889Z,0.00
2018-08-22T02:23:37.926Z,0.00
2018-08-22T02:24:37.954Z,0.00
2018-08-22T02:25:37.984Z,0.00
2018-08-22T02:26:38.014Z,0.00
2018-08-22T02:27:38.043Z,0.00
2018-08-22T02:28:38.077Z,0.00
2018-08-22T02:29:38.103Z,0.00
2018-08-22T02:30:38.138Z,0.00
2018-08-22T02:31:38.168Z,0.00
2018-08-22T02:32:38.196Z,0.00
2018-08-22T02:33:38.228Z,0.00
2018-08-22T02:34:38.260Z,0.00
2018-08-22T02:35:38.287Z,0.00
2018-08-22T02:36:38.319Z,0.00
2018-08-22T02:37:38.345Z,0.00
2018-08-22T02:38:38.378Z,0.00
2018-08-22T02:39:38.407Z,0.00
2018-08-22T02:40:38.441Z,0.00
2018-08-22T02:41:38.467Z,0.00
2018-08-22T02:42:38.496Z,0.00
2018-08-22T02:43:38.529Z,0.00
2018-08-22T02:44:38.561Z,0.00
2018-08-22T02:45:38.590Z,0.00
2018-08-22T02:46:38.620Z,0.00
2018-08-22T02:47:38.649Z,0.00
2018-08-22T02:48:38.681Z,0.00
2018-08-22T02:49:38.713Z,0.00
2018-08-22T02:50:38.743Z,0.00
2018-08-22T02:51:38.770Z,0.00
2018-08-22T02:52:38.803Z,0.00
2018-08-22T02:53:38.830Z,0.00
2018-08-22T02:54:38.863Z,0.00
2018-08-22T02:55:38.897Z,0.00
2018-08-22T02:56:38.919Z,0.00
2018-08-22T02:57:38.953Z,0.00
2018-08-22T02:58:38.983Z,0.00
2018-08-22T02:59:39.016Z,0.00
2018-08-22T03:00:39.040Z,0.00
2018-08-22T03:01:39.077Z,0.00
2018-08-22T03:02:39.106Z,0.00
2018-08-22T03:03:39.133Z,0.00
2018-08-22T03:04:39.164Z,0.00
2018-08-22T03:05:39.193Z,0.00
2018-08-22T03:06:39.225Z,0.00
2018-08-22T03:07:39.260Z,0.00
2018-08-22T03:08:39.285Z,0.00
2018-08-22T03:09:39.319Z,0.00
2018-08-22T03:10:39.349Z,0.00
2018-08-22T03:11:39.376Z,0.00
2018-08-22T03:12:39.405Z,0.00
2018-08-22T03:13:39.439Z,0.00
2018-08-22T03:14:39.469Z,0.00
2018-08-22T03:15:39.498Z,0.00
2018-08-22T03:16:39.530Z,0.00
2018-08-22T03:17:39.556Z,0.00
2018-08-22T03:18:39.587Z,0.00
2018-08-22T03:19:39.618Z,0.00
2018-08-22T03:20:39.647Z,0.00
2018-08-22T03:21:39.679Z,0.00
2018-08-22T03:22:39.711Z,0.00
2018-08-22T03:23:39.740Z,0.00
2018-08-22T03:24:39.767Z,0.00
2018-08-22T03:25:39.801Z,0.00
2018-08-22T03:26:39.828Z,0.00
2018-08-22T03:27:39.858Z,0.00
2018-08-22T03:28:39.888Z,0.00
2018-08-22T03:29:39.920Z,0.00
2018-08-22T03:30:39.947Z,0.00
2018-08-22T03:31:39.980Z,0.00
2018-08-22T03:32:40.012Z,0.00
2018-08-22T03:33:40.039Z,0.00
2018-08-22T03:34:40.072Z,0.00
2018-08-22T03:35:40.102Z,0.00
2018-08-22T03:36:40.130Z,0.00
2018-08-22T03:37:40.163Z,0.00
2018-08-22T03:38:40.191Z,0.00
2018-08-22T03:39:40.222Z,0.00
2018-08-22T03:40:40.250Z,0.00
2018-08-22T03:41:40.280Z,0.00
2018-08-22T03:42:40.313Z,0.00
2018-08-22T03:43:40.341Z,0.00
2018-08-22T03:44:40.371Z,0.00
2018-08-22T03:45:40.401Z,0.00
2018-08-22T03:46:40.433Z,0.00
2018-08-22T03:47:40.462Z,0.00
2018-08-22T03:48:40.497Z,0.00
2018-08-22T03:49:40.522Z,0.00
2018-08-22T03:50:40.551Z,0.00
2018-08-22T03:51:40.580Z,0.00
2018-08-22T03:52:40.615Z,0.00
2018-08-22T03:53:40.642Z,0.00
2018-08-22T03:54:40.673Z,0.00
2018-08-22T03:55:40.705Z,0.00
2018-08-22T03:56:40.734Z,0.00
2018-08-22T03:57:40.764Z,0.00
2018-08-22T03:58:40.794Z,0.00
2018-08-22T03:59:40.824Z,0.00
2018-08-22T04:00:40.855Z,0.00
2018-08-22T04:01:40.881Z,0.00
2018-08-22T04:02:40.914Z,0.00
2018-08-22T04:03:40.943Z,0.00
2018-08-22T04:04:40.974Z,0.00
2018-08-22T04:05:41.005Z,0.00
2018-08-22T04:06:41.041Z,0.00
2018-08-22T04:07:41.065Z,0.00
2018-08-22T04:08:41.095Z,0.00
2018-08-22T04:09:41.125Z,0.00
2018-08-22T04:10:41.160Z,0.00
2018-08-22T04:11:41.185Z,0.00
2018-08-22T04:12:41.219Z,0.00
2018-08-22T04:13:41.247Z,0.00
2018-08-22T04:14:41.278Z,0.00
2018-08-22T04:15:41.308Z,0.00
2018-08-22T04:16:41.339Z,0.00
2018-08-22T04:17:41.366Z,0.00
2018-08-22T04:18:41.401Z,0.00
2018-08-22T04:19:41.428Z,0.00
2018-08-22T04:20:41.457Z,0.00
2018-08-22T04:21:41.487Z,0.00
2018-08-22T04:22:41.519Z,0.00
2018-08-22T04:23:41.547Z,0.00
2018-08-22T04:24:41.577Z,0.00
2018-08-22T04:25:41.609Z,5.63
2018-08-22T04:26:41.638Z,5.63
2018-08-22T04:27:41.668Z,5.63
2018-08-22T04:28:41.699Z,5.63
2018-08-22T04:29:41.728Z,5.63
2018-08-22T04:30:41.758Z,5.63
2018-08-22T04:31:41.790Z,5.63
2018-08-22T04:32:41.816Z,5.63
2018-08-22T04:33:41.853Z,5.63
2018-08-22T04:34:41.879Z,5.63
2018-08-22T04:35:41.911Z,5.63
2018-08-22T04:36:41.938Z,11.25
2018-08-22T04:37:41.969Z,11.25
2018-08-22T04:38:41.997Z,11.25
2018-08-22T04:39:42.032Z,11.25
2018-08-22T04:40:42.060Z,11.25
2018-08-22T04:41:42.090Z,11.25
2018-08-22T04:42:42.119Z,11.25
2018-08-22T04:43:42.148Z,11.25
2018-08-22T04:44:42.176Z,16.88
2018-08-22T04:45:42.211Z,16.88
2018-08-22T04:46:42.238Z,16.88
2018-08-22T04:47:42.272Z,16.88
2018-08-22T04:48:42.302Z,16.88
2018-08-22T04:49:42.329Z,16.88
2018-08-22T04:50:42.363Z,16.88
2018-08-22T04:51:42.389Z,22.50
2018-08-22T04:52:42.420Z,22.50
2018-08-22T04:53:42.447Z,22.50
2018-08-22T04:54:42.482Z,22.50
2018-08-22T04:55:42.513Z,22.50
2018-08-22T04:56:42.543Z,22.50
2018-08-22T04:57:42.571Z,28.13
2018-08-22T04:58:42.604Z,28.13
2018-08-22T04:59:42.629Z,28.13
2018-08-22T05:00:42.662Z,28.13
2018-08-22T05:01:42.691Z,28.13
2018-08-22T05:02:42.722Z,28.13
2018-08-22T05:03:42.750Z,33.75
2018-08-22T05:04:42.778Z,33.75
2018-08-22T05:05:42.809Z,33.75
2018-08-22T05:06:42.845Z,33.75
2018-08-22T05:07:42.874Z,39.38
2018-08-22T05:08:42.903Z,39.38
2018-08-22T05:09:42.932Z,39.38
2018-08-22T05:10:42.962Z,39.38
2018-08-22T05:11:42.993Z,39.38
2018-08-22T05:12:43.022Z,39.38
2018-08-22T05:13:43.052Z,45.00
2018-08-22T05:14:43.086Z,45.00
2018-08-22T05:15:43.111Z,45.00
2018-08-22T05:16:43.143Z,50.63
2018-08-22T05:17:43.173Z,50.63
2018-08-22T05:18:43.205Z,50.63
2018-08-22T05:19:43.237Z,50.63
2018-08-22T05:20:43.262Z,56.25
2018-08-22T05:21:43.294Z,56.25
2018-08-22T05:22:43.323Z,61.88
2018-08-22T05:23:43.368Z,61.88
2018-08-22T05:24:43.472Z,67.50
2018-08-22T05:25:43.415Z,67.50
2018-08-22T05:26:43.446Z,73.13
2018-08-22T05:27:43.474Z,73.13
2018-08-22T05:28:43.506Z,73.13
2018-08-22T05:29:43.535Z,78.75
2018-08-22T05:30:43.566Z,84.38
2018-08-22T05:31:43.595Z,90.00
2018-08-22T05:32:43.631Z,90.00
2018-08-22T05:33:43.657Z,95.63
2018-08-22T05:34:43.690Z,95.63
2018-08-22T05:35:43.719Z,95.63
2018-08-22T05:36:43.750Z,95.63
2018-08-22T05:37:43.781Z,95.63
2018-08-22T05:38:43.808Z,95.63
2018-08-22T05:39:43.843Z,95.63
2018-08-22T05:40:43.965Z,90.00
2018-08-22T05:41:43.900Z,90.00
2018-08-22T05:42:43.930Z,90.00
2018-08-22T05:43:43.963Z,90.00
2018-08-22T05:44:43.992Z,95.63
2018-08-22T05:45:44.025Z,95.63
2018-08-22T05:46:44.055Z,95.63
2018-08-22T05:47:44.082Z,101.25
2018-08-22T05:48:44.117Z,106.88
2018-08-22T05:49:44.144Z,118.13
2018-08-22T05:50:44.175Z,123.75
2018-08-22T05:51:44.204Z,123.75
2018-08-22T05:52:44.233Z,129.38
2018-08-22T05:53:44.266Z,135.00
2018-08-22T05:54:44.297Z,135.00
2018-08-22T05:55:44.328Z,135.00
2018-08-22T05:56:44.356Z,140.63
2018-08-22T05:57:44.389Z,146.25
2018-08-22T05:58:44.419Z,146.25
2018-08-22T05:59:44.448Z,146.25
2018-08-22T06:00:44.478Z,151.88
2018-08-22T06:01:44.511Z,151.88
2018-08-22T06:02:44.543Z,163.13
2018-08-22T06:03:44.571Z,163.13
2018-08-22T06:04:44.603Z,168.75
2018-08-22T06:05:44.631Z,174.38
2018-08-22T06:06:44.662Z,180.00
2018-08-22T06:07:44.696Z,191.25
2018-08-22T06:08:44.726Z,196.88
2018-08-22T06:09:44.754Z,202.50
2018-08-22T06:10:44.790Z,202.50
2018-08-22T06:11:44.819Z,202.50
2018-08-22T06:12:44.848Z,202.50
2018-08-22T06:13:44.883Z,202.50
2018-08-22T06:14:44.909Z,208.13
2018-08-22T06:15:45.052Z,208.13
2018-08-22T06:16:44.973Z,213.75
2018-08-22T06:17:45.003Z,213.75
2018-08-22T06:18:45.036Z,219.38
2018-08-22T06:19:45.134Z,219.38
2018-08-22T06:20:45.096Z,225.00
2018-08-22T06:21:45.125Z,230.63
2018-08-22T06:22:45.156Z,230.63
2018-08-22T06:23:45.188Z,241.88
2018-08-22T06:24:45.271Z,247.50
2018-08-22T06:25:45.247Z,253.13
2018-08-22T06:26:45.284Z,264.38
2018-08-22T06:27:45.312Z,337.50
2018-08-22T06:28:45.339Z,410.63
2018-08-22T06:29:45.367Z,444.38
2018-08-22T06:30:45.403Z,315.00
2018-08-22T06:31:45.430Z,427.50
2018-08-22T06:32:45.461Z,461.25
2018-08-22T06:33:45.492Z,466.88
2018-08-22T06:34:45.523Z,483.75
2018-08-22T06:35:45.554Z,495.00
2018-08-22T06:36:45.585Z,495.00
2018-08-22T06:37:45.680Z,433.13
2018-08-22T06:38:45.652Z,489.38
2018-08-22T06:39:45.680Z,511.88
2018-08-22T06:40:45.713Z,517.50
2018-08-22T06:41:45.743Z,528.75
2018-08-22T06:42:45.774Z,506.25
2018-08-22T06:43:45.808Z,455.63
2018-08-22T06:44:45.858Z,478.13
2018-08-22T06:45:45.872Z,405.00
2018-08-22T06:46:45.902Z,399.38
2018-08-22T06:47:45.942Z,421.88
2018-08-22T06:48:45.969Z,652.50
2018-08-22T06:49:45.999Z,410.63
2018-08-22T06:50:46.034Z,556.88
2018-08-22T06:51:46.064Z,455.63
2018-08-22T06:52:46.097Z,360.00
2018-08-22T06:53:46.132Z,337.50
2018-08-22T06:54:46.162Z,337.50
2018-08-22T06:55:46.196Z,315.00
2018-08-22T06:56:46.233Z,466.88
2018-08-22T06:57:46.260Z,303.75
2018-08-22T06:58:46.296Z,286.88
2018-08-22T06:59:46.328Z,281.25
2018-08-22T07:00:46.363Z,292.50
2018-08-22T07:01:46.419Z,270.00
2018-08-22T07:02:46.527Z,258.75
2018-08-22T07:03:46.464Z,247.50
2018-08-22T07:04:46.491Z,241.88
2018-08-22T07:05:46.526Z,241.88
2018-08-22T07:06:46.564Z,241.88
2018-08-22T07:07:46.592Z,281.25
2018-08-22T07:08:46.621Z,219.38
2018-08-22T07:09:46.661Z,208.13
2018-08-22T07:10:46.694Z,202.50
2018-08-22T07:11:46.724Z,191.25
2018-08-22T07:12:46.762Z,185.63
2018-08-22T07:13:46.794Z,180.00
2018-08-22T07:14:46.822Z,185.63
2018-08-22T07:15:46.854Z,180.00
2018-08-22T07:16:46.887Z,185.63
2018-08-22T07:17:46.924Z,191.25
2018-08-22T07:18:46.952Z,202.50
2018-08-22T07:19:46.988Z,213.75
2018-08-22T07:20:47.024Z,219.38
2018-08-22T07:21:47.052Z,236.25
2018-08-22T07:22:47.088Z,253.13
2018-08-22T07:23:47.118Z,281.25
2018-08-22T07:24:47.149Z,331.88
2018-08-22T07:25:47.183Z,652.50
2018-08-22T07:26:47.214Z,990.00
2018-08-22T07:27:47.250Z,984.38
2018-08-22T07:28:47.284Z,855.00
2018-08-22T07:29:47.312Z,1215.00
2018-08-22T07:30:47.344Z,1305.00
2018-08-22T07:31:47.378Z,1293.75
2018-08-22T07:32:47.412Z,1299.38
2018-08-22T07:33:47.443Z,1344.38
2018-08-22T07:34:47.475Z,1316.25
2018-08-22T07:35:47.589Z,1310.63
2018-08-22T07:36:47.546Z,1355.63
2018-08-22T07:37:47.579Z,1299.38
2018-08-22T07:38:47.613Z,1423.13
2018-08-22T07:39:47.649Z,1451.25
2018-08-22T07:40:47.679Z,1434.38
2018-08-22T07:41:47.714Z,1456.88
2018-08-22T07:42:47.751Z,1485.00
2018-08-22T07:43:48.390Z,1518.75
2018-08-22T07:44:47.819Z,1563.75
2018-08-22T07:45:47.854Z,1614.38
2018-08-22T07:46:47.891Z,1603.13
2018-08-22T07:47:47.923Z,1563.75
2018-08-22T07:48:47.961Z,1524.38
2018-08-22T07:49:47.996Z,1513.13
2018-08-22T07:50:48.030Z,1552.50
2018-08-22T07:51:48.070Z,1485.00
2018-08-22T07:52:48.105Z,1406.25
2018-08-22T07:53:48.139Z,1355.63
2018-08-22T07:54:48.173Z,1440.00
2018-08-22T07:55:48.213Z,1507.50
2018-08-22T07:56:48.250Z,1535.63
2018-08-22T07:57:48.283Z,1513.13
2018-08-22T07:58:48.319Z,1597.50
2018-08-22T07:59:48.359Z,1451.25
2018-08-22T08:00:48.398Z,1569.38
2018-08-22T08:01:48.450Z,1350.00
2018-08-22T08:02:48.473Z,1681.88
2018-08-22T08:03:48.510Z,1687.50
2018-08-22T08:04:48.545Z,1693.13
2018-08-22T08:05:48.593Z,1676.25
2018-08-22T08:06:48.621Z,1676.25
2018-08-22T08:07:48.659Z,1119.38
2018-08-22T08:08:48.804Z,1631.25
2018-08-22T08:09:48.734Z,1676.25
2018-08-22T08:10:48.775Z,1749.38
2018-08-22T08:11:48.810Z,1760.63
2018-08-22T08:12:48.850Z,1743.75
2018-08-22T08:13:48.888Z,1743.75
2018-08-22T08:14:48.923Z,1749.38
2018-08-22T08:15:48.968Z,1687.50
2018-08-22T08:16:49.001Z,1462.50
2018-08-22T08:17:49.038Z,1524.38
2018-08-22T08:18:49.077Z,1558.13
2018-08-22T08:19:49.117Z,1597.50
2018-08-22T08:20:49.155Z,1530.00
2018-08-22T08:21:49.208Z,1541.25
2018-08-22T08:22:49.234Z,1732.50
2018-08-22T08:23:49.273Z,1749.38
2018-08-22T08:24:49.309Z,1603.13
2018-08-22T08:25:49.349Z,1575.00
2018-08-22T08:26:49.390Z,1670.63
2018-08-22T08:27:49.429Z,1749.38
2018-08-22T08:28:49.464Z,1693.13
2018-08-22T08:29:49.505Z,1698.75
2018-08-22T08:30:49.541Z,1743.75
2018-08-22T08:31:49.578Z,1788.75
2018-08-22T08:32:49.617Z,1805.63
2018-08-22T08:33:49.656Z,1749.38
2018-08-22T08:34:49.697Z,1760.63
2018-08-22T08:35:49.839Z,1704.38
2018-08-22T08:36:49.776Z,1788.75
2018-08-22T08:37:49.818Z,1760.63
2018-08-22T08:38:49.857Z,1710.00
2018-08-22T08:39:49.893Z,1800.00
2018-08-22T08:40:49.931Z,1884.38
2018-08-22T08:41:50.056Z,1873.13
2018-08-22T08:42:50.029Z,1861.88
2018-08-22T08:43:50.057Z,1861.88
2018-08-22T08:44:50.093Z,1861.88
2018-08-22T08:45:50.129Z,1890.00
2018-08-22T08:46:50.178Z,1873.13
2018-08-22T08:47:50.211Z,1873.13
2018-08-22T08:48:50.249Z,1833.75
2018-08-22T08:49:50.297Z,1822.50
2018-08-22T08:50:50.332Z,1850.63
2018-08-22T08:51:50.373Z,1867.50
2018-08-22T08:52:50.424Z,1901.25
2018-08-22T08:53:50.450Z,1923.75
2018-08-22T08:54:50.495Z,1946.25
2018-08-22T08:55:50.533Z,1963.13
2018-08-22T08:56:50.571Z,1918.13
2018-08-22T08:57:50.616Z,1951.88
2018-08-22T08:58:50.652Z,1951.88
2018-08-22T08:59:50.695Z,1968.75
2018-08-22T09:00:50.733Z,1940.63
2018-08-22T09:01:50.773Z,1918.13
2018-08-22T09:02:50.816Z,1918.13
2018-08-22T09:03:50.880Z,1895.63
2018-08-22T09:04:50.911Z,1895.63
2018-08-22T09:05:50.936Z,1845.00
2018-08-22T09:06:50.979Z,1974.38
2018-08-22T09:07:51.019Z,2025.00
2018-08-22T09:08:51.061Z,1996.88
2018-08-22T09:09:51.099Z,1985.63
2018-08-22T09:10:51.212Z,2025.00
2018-08-22T09:11:51.185Z,2041.88
2018-08-22T09:12:51.224Z,2086.88
2018-08-22T09:13:51.265Z,2064.38
2018-08-22T09:14:51.307Z,2064.38
2018-08-22T09:15:51.347Z,2041.88
2018-08-22T09:16:51.389Z,1980.00
2018-08-22T09:17:51.428Z,2025.00
2018-08-22T09:18:51.469Z,2036.25
2018-08-22T09:19:51.515Z,1918.13
2018-08-22T09:20:51.553Z,1867.50
2018-08-22T09:21:51.594Z,2002.50
2018-08-22T09:22:51.635Z,2103.75
2018-08-22T09:23:51.681Z,2064.38
2018-08-22T09:24:51.718Z,2092.50
2018-08-22T09:25:51.761Z,2047.50
2018-08-22T09:26:51.801Z,2070.00
2018-08-22T09:27:51.841Z,2030.63
2018-08-22T09:28:51.882Z,2036.25
2018-08-22T09:29:51.947Z,2092.50
2018-08-22T09:30:51.969Z,1985.63
2018-08-22T09:31:52.011Z,2086.88
2018-08-22T09:32:52.048Z,2165.63
2018-08-22T09:33:52.089Z,2176.88
2018-08-22T09:34:52.132Z,2131.88
2018-08-22T09:35:52.174Z,2148.75
2018-08-22T09:36:52.245Z,2064.38
2018-08-22T09:37:52.259Z,2109.38
2018-08-22T09:38:52.300Z,2013.75
2018-08-22T09:39:52.413Z,2047.50
2018-08-22T09:40:52.382Z,2025.00
2018-08-22T09:41:52.423Z,2053.13
2018-08-22T09:42:52.469Z,2030.63
2018-08-22T09:43:52.508Z,1923.75
2018-08-22T09:44:52.548Z,1963.13
2018-08-22T09:45:52.589Z,1845.00
2018-08-22T09:46:52.789Z,1732.50
2018-08-22T09:47:52.675Z,1642.50
2018-08-22T09:48:52.719Z,1659.38
2018-08-22T09:49:52.757Z,1670.63
2018-08-22T09:50:52.865Z,1681.88
2018-08-22T09:51:52.846Z,1743.75
2018-08-22T09:52:52.885Z,1873.13
2018-08-22T09:53:52.925Z,1856.25
2018-08-22T09:54:52.967Z,2250.00
2018-08-22T09:55:53.010Z,2160.00
2018-08-22T09:56:53.048Z,2047.50
2018-08-22T09:57:53.093Z,1957.50
2018-08-22T09:58:53.134Z,1760.63
2018-08-22T09:59:53.241Z,1760.63
2018-08-22T10:00:53.217Z,1856.25
2018-08-22T10:01:53.262Z,1957.50
2018-08-22T10:02:53.297Z,2013.75
2018-08-22T10:03:53.343Z,1890.00
2018-08-22T10:04:53.382Z,1884.38
2018-08-22T10:05:53.423Z,2075.63
2018-08-22T10:06:53.643Z,2053.13
2018-08-22T10:07:53.505Z,2025.00
2018-08-22T10:08:53.546Z,2131.88
2018-08-22T10:09:53.638Z,2092.50
2018-08-22T10:10:53.634Z,2047.50
2018-08-22T10:11:53.686Z,1912.50
2018-08-22T10:12:53.714Z,2109.38
2018-08-22T10:13:53.751Z,2205.00
2018-08-22T10:14:53.796Z,2126.25
2018-08-22T10:15:53.839Z,1985.63
2018-08-22T10:16:53.881Z,1923.75
2018-08-22T10:17:53.923Z,1968.75
2018-08-22T10:18:53.988Z,1980.00
2018-08-22T10:19:54.009Z,1912.50
2018-08-22T10:20:54.048Z,1743.75
2018-08-22T10:21:54.090Z,1906.88
2018-08-22T10:22:54.130Z,1991.25
2018-08-22T10:23:54.173Z,1940.63
2018-08-22T10:24:54.213Z,1946.25
2018-08-22T10:25:54.257Z,1710.00
2018-08-22T10:26:54.315Z,1524.38
2018-08-22T10:27:54.337Z,1890.00
2018-08-22T10:28:54.378Z,1951.88
2018-08-22T10:29:54.421Z,1991.25
2018-08-22T10:30:54.461Z,2103.75
2018-08-22T10:31:54.505Z,1805.63
2018-08-22T10:32:54.730Z,1456.88
2018-08-22T10:33:54.585Z,1350.00
2018-08-22T10:34:54.627Z,1456.88
2018-08-22T10:35:54.672Z,1653.75
2018-08-22T10:36:54.710Z,1535.63
2018-08-22T10:37:54.753Z,1355.63
2018-08-22T10:38:54.795Z,1417.50
2018-08-22T10:39:54.854Z,1833.75
2018-08-22T10:40:54.879Z,1996.88
2018-08-22T10:41:54.923Z,2098.13
2018-08-22T10:42:54.961Z,1963.13
2018-08-22T10:43:55.005Z,1816.88
2018-08-22T10:44:55.045Z,1991.25
2018-08-22T10:45:55.082Z,1580.63
2018-08-22T10:46:55.127Z,1895.63
2018-08-22T10:47:55.181Z,1884.38
2018-08-22T10:48:55.207Z,1642.50
2018-08-22T10:49:55.245Z,1704.38
2018-08-22T10:50:55.289Z,1018.13
2018-08-22T10:51:55.334Z,838.13
2018-08-22T10:52:55.373Z,1158.75
2018-08-22T10:53:55.421Z,810.00
2018-08-22T10:54:55.456Z,900.00
2018-08-22T10:55:55.499Z,1355.63
2018-08-22T10:56:55.534Z,1389.38
2018-08-22T10:57:55.578Z,1310.63
2018-08-22T10:58:55.621Z,1591.88
2018-08-22T10:59:55.661Z,1681.88
2018-08-22T11:00:55.701Z,1642.50
2018-08-22T11:01:55.771Z,1636.88
2018-08-22T11:02:55.780Z,1575.00
2018-08-22T11:03:55.823Z,1738.13
2018-08-22T11:04:55.864Z,1884.38
2018-08-22T11:05:55.905Z,1884.38
2018-08-22T11:06:55.945Z,1760.63
2018-08-22T11:07:55.986Z,1710.00
2018-08-22T11:08:56.026Z,1783.13
2018-08-22T11:09:56.163Z,1839.38
2018-08-22T11:10:56.109Z,1766.25
2018-08-22T11:11:56.151Z,1535.63
2018-08-22T11:12:56.189Z,911.25
2018-08-22T11:13:56.232Z,883.13
2018-08-22T11:14:56.274Z,1248.75
2018-08-22T11:15:56.417Z,1057.50
2018-08-22T11:16:56.352Z,905.63
2018-08-22T11:17:56.396Z,905.63
2018-08-22T11:18:56.436Z,1558.13
2018-08-22T11:19:56.478Z,1597.50
2018-08-22T11:20:56.517Z,1586.25
2018-08-22T11:21:56.562Z,1608.75
2018-08-22T11:22:56.600Z,1676.25
2018-08-22T11:23:56.641Z,1231.88
2018-08-22T11:24:56.678Z,1788.75
2018-08-22T11:25:56.721Z,1861.88
2018-08-22T11:26:56.759Z,1766.25
2018-08-22T11:27:56.801Z,1856.25
2018-08-22T11:28:56.844Z,1732.50
2018-08-22T11:29:56.883Z,1833.75
2018-08-22T11:30:56.926Z,1850.63
2018-08-22T11:31:56.966Z,1845.00
2018-08-22T11:32:57.005Z,1800.00
2018-08-22T11:33:57.044Z,1670.63
2018-08-22T11:34:57.089Z,1704.38
2018-08-22T11:35:57.126Z,1732.50
2018-08-22T11:36:57.169Z,1743.75
2018-08-22T11:37:57.211Z,1636.88
2018-08-22T11:38:57.249Z,1642.50
2018-08-22T11:39:57.293Z,1777.50
2018-08-22T11:40:57.333Z,1586.25
2018-08-22T11:41:57.375Z,1597.50
2018-08-22T11:42:57.416Z,1209.38
2018-08-22T11:43:57.458Z,742.50
2018-08-22T11:44:57.496Z,731.25
2018-08-22T11:45:57.540Z,1710.00
2018-08-22T11:46:57.578Z,669.38
2018-08-22T11:47:57.619Z,1136.25
2018-08-22T11:48:57.660Z,601.88
2018-08-22T11:49:57.704Z,585.00
2018-08-22T11:50:57.742Z,950.63
2018-08-22T11:51:57.786Z,1282.50
2018-08-22T11:52:57.827Z,1389.38
2018-08-22T11:53:57.865Z,573.75
2018-08-22T11:54:57.907Z,528.75
2018-08-22T11:55:57.991Z,1141.88
2018-08-22T11:56:57.991Z,1456.88
2018-08-22T11:57:58.031Z,1625.63
2018-08-22T11:58:58.073Z,1063.13
2018-08-22T11:59:58.114Z,1288.13
2018-08-22T12:00:58.150Z,1361.25
2018-08-22T12:01:58.307Z,1530.00
2018-08-22T12:02:58.233Z,1192.50
2018-08-22T12:03:58.274Z,1625.63
2018-08-22T12:04:58.316Z,1608.75
2018-08-22T12:05:58.354Z,511.88
2018-08-22T12:06:58.398Z,500.63
2018-08-22T12:07:58.437Z,765.00
2018-08-22T12:08:58.478Z,1170.00
2018-08-22T12:09:58.518Z,466.88
2018-08-22T12:10:58.557Z,416.25
2018-08-22T12:11:58.598Z,444.38
2018-08-22T12:12:58.641Z,427.50
2018-08-22T12:13:58.679Z,461.25
2018-08-22T12:14:58.722Z,517.50
2018-08-22T12:15:58.799Z,1158.75
2018-08-22T12:16:58.797Z,1203.75
2018-08-22T12:17:58.842Z,956.25
2018-08-22T12:18:58.877Z,736.88
2018-08-22T12:19:58.916Z,663.75
2018-08-22T12:20:58.957Z,658.13
2018-08-22T12:21:58.998Z,646.88
2018-08-22T12:22:59.076Z,635.63
2018-08-22T12:23:59.077Z,630.00
2018-08-22T12:24:59.116Z,618.75
2018-08-22T12:25:59.159Z,607.50
2018-08-22T12:26:59.200Z,607.50
2018-08-22T12:27:59.238Z,568.13
2018-08-22T12:28:59.278Z,562.50
2018-08-22T12:29:59.322Z,562.50
2018-08-22T12:30:59.390Z,579.38
2018-08-22T12:31:59.403Z,568.13
2018-08-22T12:32:59.439Z,562.50
2018-08-22T12:33:59.482Z,562.50
2018-08-22T12:34:59.520Z,556.88
2018-08-22T12:35:59.564Z,556.88
2018-08-22T12:36:59.601Z,540.00
2018-08-22T12:37:59.645Z,528.75
2018-08-22T12:38:59.686Z,528.75
2018-08-22T12:39:59.727Z,523.13